Mendota, IL

9:56 AM CST on January 21, 2017 (GMT -0600)
Welland and Angling Roads | | Change Station
Active Advisory: Flood Warning, Flood Advisory

Elev 833 ft 41.63 °N, 89.02 °W | Updated 8 seconds ago

Partly Cloudy
Partly Cloudy
49.1 °F
Feels Like 47 °F
N
4.5
Wind Variable Wind from SE
Gusts 6.9 mph

Today
High -- | Low -- °F
--% Chance of Precip.
Yesterday
High -- | Low -- °F
Precip. -- in
Pressure 29.50 in
Visibility 10.0 miles
Clouds Clear
Windchill 47 °F
Dew Point -5 °F
Humidity 10%
Rainfall 0.02 in
Snow Depth Not available.
7:17 AM 4:58 PM
Waning Crescent, 34% visible
METAR KVYS 211535Z AUTO 18006KT 10SM CLR 09/07 A2950 RMK AO2 T00870069
Pressure 29.50 in
Visibility 10.0 miles
Clouds Clear
Windchill 47 °F
Dew Point -5 °F
Humidity 10%
Rainfall 0.02 in
Snow Depth Not available.
7:17 AM 4:58 PM
Waning Crescent, 34% visible
METAR KVYS 211535Z AUTO 18006KT 10SM CLR 09/07 A2950 RMK AO2 T00870069

Get Your Daily Forecast Email!

Thanks for signing up!

Be on the lookout for a verification email in your inbox.

You'll start receiving the daily forecast at 8 AM.

×

10-Day Weather Forecast

Almanac

Astronomy

Jan. 21, 2017 Rise Set
Actual Time
Civil Twilight
Nautical Twilight
Astronomical Twilight
Moon
Length of Visible Light
Length of Day
Tomorrow will be .
, % of the Moon is Illuminated

Today's Extremes

State Highs State Lows

Community

WunderPhotos

Upload Photos

1,962,540 photos uploaded!

WunderBlog® & News

Nearby

Air Quality

  Air Quality AQ Index Pollutant
Not available.

Snow Depth

Station Depth Elevation

Earthquake Activity

City Distance Mag. Time & Date
Minimum magnitude displayed is 2.5.

Coastal Water Temperatures

Place Temperature

Stations

Nearby Weather Stations

Station Location Temp. Windchill Dew Point Humidity Wind Precip. Elev Updated Type
                   

Watches & Warnings

Flood Warning
Issued: 9:22 PM CST Jan. 20, 2017 – National Weather Service

The Flood Warning continues for
the Illinois River at La Salle.
* Until Tuesday evening.
* At 845 PM Friday the stage was 21.1 feet.
* Flood stage is 20.0 feet.
* Minor flooding is occurring and minor flooding is forecast.
* Forecast... the river will continue rising to near 22.0 feet by
Saturday afternoon. The river will fall below flood stage early
Tuesday morning.
* Impact... at 22.0 feet... Riverside parking lot at Starved Rock State
Park floods.


Lat... Lon 4137 8896 4135 8929 4126 8930 4128 8896





Flood Advisory
Issued: 9:38 PM CST Jan. 20, 2017 – National Weather Service

The Flood Advisory continues for
the Illinois River at Ottawa
* until Tuesday morning.
* At 830 PM Friday the stage was 462.5 feet.
* Action stage is 461.0 feet.
* Flood stage is 463.0 feet.
* Forecast... the river will rise to near 462.7 feet by Saturday
afternoon.
* Impact... at 462.4 feet... Allen Park entrance threatened and west
boat ramp is submerged.


Lat... Lon 4135 8868 4137 8896 4128 8897 4127 8867